KDKX

Details ICAO KDKX
Name Knoxville Downtown Island
Region United States
Timezone America/New_York (UTC-5.0)
Plans Departing 106
Arriving 74
Stats Elevation 833 ft / 254 m (AMSL)
Location 35.963800° -83.873700°
Runways 1
Magnetic Variation 6.042° W
Sunrise 2021-03-03 12:04:10 UTC / 2021-03-03 07:04:10 Local
Sunset 2021-03-03 23:33:30 UTC / 2021-03-03 18:33:30 Local
Advertisement - Login to hide

Runways

ID Width Length Bearing (true/mag) Surface Threshold Overrun Markings Lighting
08 75 ft / 23 m 3,491 ft / 1,064 m 75.06° / 81.10° ASPHALT 0 ft / 0 m 0 ft / 0 m APP EDGE THRESHOLD REIL-OMNI
26 75 ft / 23 m 3,491 ft / 1,064 m 255.06° / 261.10° ASPHALT 0 ft / 0 m 0 ft / 0 m APP EDGE THRESHOLD REIL-OMNI

Approach Navaids

Runway Type Ident Frequency Range Bearing (true/mag) Slope Elevation
26 LOC-LOC IDKX 111.30 MHz 18 nm / 33 km 255.06° / 261.10° - 833 ft / 254 m (AMSL)
26 OM OM - - 255.06° / 261.10° - 833 ft / 254 m (AMSL)

Map

Weather


0- 5 10 15 20 25 30 35+ Temperature / °C

Clouds and Precipitation
Forecast for 2021-03-04 00:00 UTC. Updated 2 hours ago

Ground ~20,000 ft ~40,000 ft Winds

METAR

KDKX 032315Z AUTO 26004KT 10SM CLR 15/M05 A3003 RMK A01

TAF

Not found

Frequencies

Unicom 122.95 MHz UNICOM
Recorded 125.37 MHz AWOS 3
Clearance 121.70 MHz CLNC DEL
Approach 123.90 MHz APP/DEP
Warning: Do not use this data for real-world aviation or navigation. No guarantee of current accuracy is given.